createdAt,value
2022-11-10T00:00:40.829Z,9.66
2022-11-10T00:06:06.294Z,9.66
2022-11-10T00:11:26.482Z,9.66
2022-11-10T00:17:02.085Z,9.66
2022-11-10T00:22:25.961Z,9.66
2022-11-10T00:27:46.482Z,9.72
2022-11-10T00:33:07.633Z,9.86
2022-11-10T00:38:28.364Z,9.96
2022-11-10T00:43:49.483Z,10.01
2022-11-10T00:49:16.833Z,10.14
2022-11-10T00:54:37.488Z,10.27
2022-11-10T00:59:58.026Z,10.43
2022-11-10T01:05:18.482Z,10.40
2022-11-10T01:10:39.223Z,10.48
2022-11-10T01:16:22.186Z,10.65
2022-11-10T01:21:51.819Z,10.64
2022-11-10T01:27:12.042Z,10.77
2022-11-10T01:32:32.536Z,10.70
2022-11-10T01:37:53.380Z,10.80
2022-11-10T01:43:17.096Z,10.74
2022-11-10T01:48:46.813Z,10.80
2022-11-10T01:54:22.164Z,10.99
2022-11-10T01:59:48.789Z,10.87
2022-11-10T02:05:09.735Z,11.05
2022-11-10T02:10:30.639Z,11.09
2022-11-10T02:15:51.144Z,11.13
2022-11-10T02:21:11.412Z,11.22
2022-11-10T02:26:31.923Z,11.19
2022-11-10T02:31:52.621Z,11.18
2022-11-10T02:37:12.861Z,11.29
2022-11-10T02:42:33.512Z,11.34
2022-11-10T02:47:53.960Z,11.19
2022-11-10T02:53:14.588Z,11.39
2022-11-10T02:58:34.923Z,11.37
2022-11-10T03:03:55.746Z,11.45
2022-11-10T03:09:16.295Z,11.30
2022-11-10T03:14:36.575Z,11.40
2022-11-10T03:19:56.895Z,11.30
2022-11-10T03:25:17.564Z,11.49
2022-11-10T03:30:38.457Z,11.59
2022-11-10T03:35:59.125Z,11.61
2022-11-10T03:41:20.731Z,11.60
2022-11-10T03:46:43.474Z,11.66
2022-11-10T03:52:04.096Z,11.66
2022-11-10T03:57:24.390Z,11.62
2022-11-10T04:02:44.858Z,11.57
2022-11-10T04:08:32.168Z,11.60
2022-11-10T04:14:11.123Z,11.59
2022-11-10T04:19:31.716Z,11.62
2022-11-10T04:24:52.232Z,11.51
2022-11-10T04:30:12.748Z,11.57
2022-11-10T04:35:33.131Z,11.69
2022-11-10T04:40:53.719Z,11.67
2022-11-10T04:46:22.314Z,11.70
2022-11-10T04:51:43.041Z,11.85
2022-11-10T04:57:03.751Z,11.97
2022-11-10T05:02:24.060Z,12.00
2022-11-10T05:07:48.264Z,12.03
2022-11-10T05:13:08.763Z,12.19
2022-11-10T05:18:29.424Z,12.27
2022-11-10T05:23:49.736Z,12.21
2022-11-10T05:29:09.963Z,12.33
2022-11-10T05:34:30.553Z,12.38
2022-11-10T05:39:51.246Z,12.50
2022-11-10T05:45:11.818Z,12.58
2022-11-10T05:50:33.067Z,12.56
2022-11-10T05:55:53.656Z,12.60
2022-11-10T06:01:17.300Z,12.70
2022-11-10T06:06:37.954Z,12.67
2022-11-10T06:11:58.640Z,12.77
2022-11-10T06:17:19.843Z,12.74
2022-11-10T06:22:40.744Z,12.79
2022-11-10T06:28:01.910Z,12.78
2022-11-10T06:33:22.737Z,12.84
2022-11-10T06:38:43.987Z,12.84
2022-11-10T06:44:04.603Z,12.84
2022-11-10T06:49:24.812Z,12.89
2022-11-10T06:54:45.309Z,12.92
2022-11-10T07:00:07.576Z,12.96
2022-11-10T07:05:28.195Z,13.06
2022-11-10T07:10:55.025Z,13.15
2022-11-10T07:16:20.411Z,13.19
2022-11-10T07:21:49.971Z,13.05
2022-11-10T07:27:10.901Z,13.27
2022-11-10T07:32:31.422Z,13.37
2022-11-10T07:37:51.996Z,13.36
2022-11-10T07:43:12.835Z,13.53
2022-11-10T07:48:33.347Z,13.68
2022-11-10T07:53:54.101Z,13.62
2022-11-10T07:59:14.727Z,13.73
2022-11-10T08:04:35.089Z,13.77
2022-11-10T08:09:55.603Z,13.89
2022-11-10T08:15:16.213Z,13.65
2022-11-10T08:20:36.877Z,13.89
2022-11-10T08:26:01.743Z,13.71
2022-11-10T08:31:22.288Z,13.98
2022-11-10T08:36:42.544Z,14.21
2022-11-10T08:42:02.960Z,14.35
2022-11-10T08:47:29.576Z,14.18
2022-11-10T08:52:50.295Z,14.43
2022-11-10T08:58:16.317Z,14.49
2022-11-10T09:03:37.053Z,14.71
2022-11-10T09:08:57.492Z,14.73
2022-11-10T09:14:17.815Z,14.60
2022-11-10T09:19:38.753Z,14.66
2022-11-10T09:24:59.364Z,14.65
2022-11-10T09:30:20.165Z,14.44
2022-11-10T09:35:41.274Z,14.69
2022-11-10T09:41:12.653Z,14.72
2022-11-10T09:46:40.047Z,14.97
2022-11-10T09:52:02.377Z,15.29
2022-11-10T09:57:26.008Z,15.52
2022-11-10T10:03:00.355Z,15.76
2022-11-10T10:08:50.745Z,15.85
2022-11-10T10:14:39.029Z,16.12
2022-11-10T10:20:10.148Z,16.32
2022-11-10T10:25:32.607Z,16.57
2022-11-10T10:30:55.152Z,16.27
2022-11-10T10:36:22.056Z,16.37
2022-11-10T10:41:46.853Z,15.97
2022-11-10T10:47:07.083Z,16.19
2022-11-10T10:52:33.952Z,16.49
2022-11-10T10:58:03.329Z,16.28
2022-11-10T11:03:46.676Z,16.46
2022-11-10T11:09:08.264Z,16.65
2022-11-10T11:14:30.816Z,16.78
2022-11-10T11:19:57.080Z,16.65
2022-11-10T11:25:34.230Z,16.52
2022-11-10T11:31:10.655Z,16.76
2022-11-10T11:36:34.228Z,16.37
2022-11-10T11:42:14.233Z,17.00
2022-11-10T11:47:45.444Z,16.95
2022-11-10T11:53:26.548Z,16.95
2022-11-10T11:58:57.482Z,16.89
2022-11-10T12:04:36.242Z,17.13
2022-11-10T12:10:15.988Z,17.03
2022-11-10T12:15:48.883Z,16.92
2022-11-10T12:21:29.848Z,16.11
2022-11-10T12:26:58.628Z,16.77
2022-11-10T12:32:28.395Z,16.99
2022-11-10T12:38:27.565Z,16.98
2022-11-10T12:44:08.299Z,16.08
2022-11-10T12:49:41.010Z,15.95
2022-11-10T12:55:01.550Z,16.35
2022-11-10T13:00:29.127Z,16.82
2022-11-10T13:05:56.151Z,16.27
2022-11-10T13:11:16.601Z,15.77
2022-11-10T13:16:42.713Z,15.61
2022-11-10T13:22:04.503Z,15.41
2022-11-10T13:27:47.059Z,15.25
2022-11-10T13:33:22.861Z,16.44
2022-11-10T13:38:45.208Z,15.49
2022-11-10T13:44:25.295Z,15.26
2022-11-10T13:49:59.767Z,14.95
2022-11-10T13:55:31.672Z,16.18
2022-11-10T14:01:18.628Z,16.16
2022-11-10T14:06:45.386Z,16.06
2022-11-10T14:12:22.171Z,15.98
2022-11-10T14:17:51.840Z,15.74
2022-11-10T14:23:26.136Z,15.18
2022-11-10T14:28:46.645Z,14.56
2022-11-10T14:34:15.121Z,15.41
2022-11-10T14:39:35.794Z,14.09
2022-11-10T14:45:14.701Z,13.62
2022-11-10T14:50:35.857Z,14.68
2022-11-10T14:55:56.639Z,14.55
2022-11-10T15:01:33.794Z,14.33
2022-11-10T15:06:55.118Z,14.34
2022-11-10T15:12:22.223Z,14.24
2022-11-10T15:17:50.587Z,14.12
2022-11-10T15:23:42.615Z,14.03
2022-11-10T15:29:29.425Z,13.86
2022-11-10T15:34:50.918Z,13.76
2022-11-10T15:40:41.032Z,13.52
2022-11-10T15:46:17.853Z,13.52
2022-11-10T15:51:39.351Z,13.37
2022-11-10T15:57:00.485Z,13.46
2022-11-10T16:02:24.252Z,13.52
2022-11-10T16:07:44.501Z,13.39
2022-11-10T16:13:04.963Z,13.35
2022-11-10T16:18:30.109Z,13.27
2022-11-10T16:23:50.898Z,13.50
2022-11-10T16:29:20.365Z,13.39
2022-11-10T16:34:40.665Z,13.36
2022-11-10T16:40:01.324Z,13.27
2022-11-10T16:45:29.972Z,13.24
2022-11-10T16:50:56.563Z,13.23
2022-11-10T16:56:18.602Z,13.12
2022-11-10T17:01:41.524Z,13.27
2022-11-10T17:07:02.232Z,13.54
2022-11-10T17:12:22.575Z,13.76
2022-11-10T17:17:50.431Z,13.81
2022-11-10T17:23:13.893Z,13.68
2022-11-10T17:28:34.297Z,13.55
2022-11-10T17:33:55.006Z,13.35
2022-11-10T17:39:16.832Z,13.21
2022-11-10T17:44:37.188Z,13.05
2022-11-10T17:49:57.988Z,12.95
2022-11-10T17:55:24.086Z,12.92
2022-11-10T18:00:45.499Z,12.93
2022-11-10T18:06:06.553Z,12.86
2022-11-10T18:11:27.045Z,12.75
2022-11-10T18:16:47.352Z,12.89
2022-11-10T18:22:07.952Z,13.19
2022-11-10T18:27:29.106Z,13.26
2022-11-10T18:32:49.303Z,13.40
2022-11-10T18:38:13.435Z,13.19
2022-11-10T18:43:34.807Z,13.00
2022-11-10T18:48:55.119Z,12.80
2022-11-10T18:54:15.971Z,12.77
2022-11-10T18:59:37.795Z,12.58
2022-11-10T19:05:04.464Z,12.48
2022-11-10T19:10:31.870Z,12.38
2022-11-10T19:15:52.081Z,12.30
2022-11-10T19:21:14.552Z,12.23
2022-11-10T19:26:35.007Z,11.13
2022-11-10T19:31:55.510Z,10.83
2022-11-10T19:37:16.029Z,10.72
2022-11-10T19:42:36.407Z,10.59
2022-11-10T19:47:57.359Z,10.53
2022-11-10T19:53:17.778Z,10.49
2022-11-10T19:58:39.960Z,10.39
2022-11-10T20:04:01.012Z,10.35
2022-11-10T20:09:21.651Z,10.31
2022-11-10T20:14:42.156Z,10.25
2022-11-10T20:20:02.767Z,10.21
2022-11-10T20:25:23.333Z,10.15
2022-11-10T20:30:44.552Z,10.09
2022-11-10T20:36:32.111Z,10.00
2022-11-10T20:41:55.356Z,9.95
2022-11-10T20:47:15.932Z,9.86
2022-11-10T20:52:36.487Z,9.88
2022-11-10T20:57:56.662Z,9.80
2022-11-10T21:03:17.377Z,9.74
2022-11-10T21:08:37.945Z,9.70
2022-11-10T21:13:58.442Z,9.60
2022-11-10T21:19:19.015Z,9.56
2022-11-10T21:24:39.884Z,9.55
2022-11-10T21:30:00.601Z,9.51
2022-11-10T21:35:21.048Z,9.52
2022-11-10T21:40:41.847Z,9.45
2022-11-10T21:46:02.268Z,9.41
2022-11-10T21:51:23.196Z,9.38
2022-11-10T21:56:43.491Z,9.33
2022-11-10T22:02:04.050Z,9.22
2022-11-10T22:07:24.611Z,9.24
2022-11-10T22:13:17.274Z,9.18
2022-11-10T22:18:38.123Z,9.11
2022-11-10T22:24:16.888Z,9.09
2022-11-10T22:29:43.721Z,8.95
2022-11-10T22:35:04.543Z,8.92
2022-11-10T22:40:43.425Z,8.97
2022-11-10T22:46:04.132Z,8.95
2022-11-10T22:51:26.164Z,8.85
2022-11-10T22:56:48.135Z,8.87
2022-11-10T23:02:15.536Z,8.79
2022-11-10T23:07:36.143Z,8.76
2022-11-10T23:12:56.907Z,8.77
2022-11-10T23:18:17.692Z,8.71
2022-11-10T23:23:39.495Z,8.67
2022-11-10T23:29:00.015Z,8.67
2022-11-10T23:34:20.883Z,8.60
2022-11-10T23:39:41.233Z,8.63
2022-11-10T23:45:01.841Z,8.58
2022-11-10T23:50:22.812Z,8.50
2022-11-10T23:55:43.723Z,8.52
